createdAt,value
2018-02-14T00:00:40.704Z,66.10
2018-02-14T00:04:03.974Z,66.40
2018-02-14T00:07:27.262Z,66.00
2018-02-14T00:10:50.540Z,65.50
2018-02-14T00:14:13.820Z,65.70
2018-02-14T00:17:37.109Z,66.50
2018-02-14T00:21:01.169Z,66.20
2018-02-14T00:24:24.628Z,66.10
2018-02-14T00:27:47.902Z,66.60
2018-02-14T00:31:11.181Z,66.30
2018-02-14T00:34:34.508Z,66.70
2018-02-14T00:37:57.776Z,67.90
2018-02-14T00:41:21.051Z,69.00
2018-02-14T00:44:45.093Z,70.10
2018-02-14T00:48:09.157Z,70.20
2018-02-14T00:51:32.429Z,70.10
2018-02-14T00:54:55.743Z,68.70
2018-02-14T00:58:19.072Z,69.70
2018-02-14T01:01:42.392Z,69.10
2018-02-14T01:05:05.749Z,69.30
2018-02-14T01:08:29.019Z,69.70
2018-02-14T01:11:52.398Z,69.30
2018-02-14T01:15:15.720Z,68.00
2018-02-14T01:18:44.636Z,67.30
2018-02-14T01:22:08.737Z,67.00
2018-02-14T01:25:32.019Z,66.90
2018-02-14T01:28:55.342Z,67.00
2018-02-14T01:32:18.662Z,66.80
2018-02-14T01:35:41.926Z,66.90
2018-02-14T01:39:05.277Z,67.10
2018-02-14T01:42:29.311Z,66.20
2018-02-14T01:45:52.586Z,66.20
2018-02-14T01:49:15.922Z,65.60
2018-02-14T01:52:39.214Z,65.60
2018-02-14T01:56:02.496Z,65.10
2018-02-14T01:59:25.810Z,65.00
2018-02-14T02:02:49.146Z,64.70
2018-02-14T02:06:12.424Z,65.20
2018-02-14T02:09:36.554Z,64.90
2018-02-14T02:12:59.824Z,64.80
2018-02-14T02:16:23.142Z,64.40
2018-02-14T02:19:46.408Z,64.30
2018-02-14T02:23:09.706Z,64.60
2018-02-14T02:26:32.975Z,66.20
2018-02-14T02:29:56.298Z,66.50
2018-02-14T02:33:19.559Z,66.20
2018-02-14T02:36:42.834Z,66.90
2018-02-14T02:40:24.177Z,67.30
2018-02-14T02:43:47.469Z,66.70
2018-02-14T02:47:11.533Z,67.30
2018-02-14T02:50:34.867Z,67.20
2018-02-14T02:53:58.241Z,67.60
2018-02-14T02:57:21.501Z,67.40
2018-02-14T03:00:44.776Z,67.70
2018-02-14T03:04:08.817Z,67.30
2018-02-14T03:07:32.895Z,67.30
2018-02-14T03:10:56.227Z,67.20
2018-02-14T03:14:20.295Z,66.80
2018-02-14T03:17:43.581Z,66.70
2018-02-14T03:21:07.691Z,67.80
2018-02-14T03:24:30.951Z,67.60
2018-02-14T03:27:54.345Z,68.10
2018-02-14T03:31:17.632Z,68.00
2018-02-14T03:34:41.749Z,68.20
2018-02-14T03:38:05.081Z,68.10
2018-02-14T03:41:29.207Z,68.10
2018-02-14T03:44:52.541Z,68.00
2018-02-14T03:48:16.643Z,68.70
2018-02-14T03:51:40.753Z,68.10
2018-02-14T03:55:04.032Z,68.10
2018-02-14T03:58:28.082Z,68.10
2018-02-14T04:01:51.477Z,68.10
2018-02-14T04:05:14.771Z,67.80
2018-02-14T04:08:38.039Z,67.20
2018-02-14T04:12:01.323Z,67.60
2018-02-14T04:15:24.619Z,68.30
2018-02-14T04:18:48.658Z,67.90
2018-02-14T04:22:11.937Z,67.90
2018-02-14T04:25:35.213Z,68.10
2018-02-14T04:28:58.514Z,68.50
2018-02-14T04:32:21.843Z,68.90
2018-02-14T04:35:45.129Z,69.90
2018-02-14T04:39:08.413Z,70.10
2018-02-14T04:42:32.457Z,70.20
2018-02-14T04:45:55.752Z,70.10
2018-02-14T04:49:19.012Z,70.50
2018-02-14T04:52:42.293Z,70.60
2018-02-14T04:56:06.344Z,70.80
2018-02-14T04:59:30.464Z,70.70
2018-02-14T05:02:53.730Z,70.60
2018-02-14T05:06:17.012Z,70.50
2018-02-14T05:09:41.081Z,70.80
2018-02-14T05:13:04.408Z,70.70
2018-02-14T05:16:27.767Z,70.10
2018-02-14T05:19:51.098Z,69.50
2018-02-14T05:23:14.372Z,69.10
2018-02-14T05:26:38.409Z,69.50
2018-02-14T05:30:02.459Z,69.50
2018-02-14T05:33:25.728Z,69.40
2018-02-14T05:36:48.999Z,70.50
2018-02-14T05:40:12.268Z,69.30
2018-02-14T05:43:35.571Z,69.40
2018-02-14T05:46:59.601Z,69.50
2018-02-14T05:50:23.646Z,69.90
2018-02-14T05:53:46.939Z,69.90
2018-02-14T05:57:10.211Z,68.40
2018-02-14T06:00:33.503Z,69.30
2018-02-14T06:03:56.823Z,69.70
2018-02-14T06:07:20.893Z,72.30
2018-02-14T06:10:44.979Z,69.40
2018-02-14T06:14:08.252Z,69.30
2018-02-14T06:17:32.327Z,68.70
2018-02-14T06:20:55.698Z,68.60
2018-02-14T06:24:18.973Z,70.20
2018-02-14T06:27:42.245Z,70.70
2018-02-14T06:31:06.372Z,68.50
2018-02-14T06:34:29.651Z,68.30
2018-02-14T06:37:53.709Z,67.30
2018-02-14T06:41:16.995Z,67.20
2018-02-14T06:44:40.303Z,67.70
2018-02-14T06:48:03.579Z,68.70
2018-02-14T06:51:26.963Z,68.30
2018-02-14T06:54:50.991Z,66.60
2018-02-14T06:58:16.201Z,66.80
2018-02-14T07:01:39.527Z,66.60
2018-02-14T07:05:03.558Z,65.20
2018-02-14T07:08:28.375Z,65.90
2018-02-14T07:11:53.159Z,65.20
2018-02-14T07:15:16.448Z,65.30
2018-02-14T07:18:40.571Z,65.40
2018-02-14T07:22:03.843Z,65.30
2018-02-14T07:25:27.891Z,64.90
2018-02-14T07:28:52.021Z,64.80
2018-02-14T07:32:16.149Z,65.40
2018-02-14T07:35:39.525Z,64.50
2018-02-14T07:39:02.798Z,64.90
2018-02-14T07:42:26.851Z,63.60
2018-02-14T07:45:50.451Z,63.60
2018-02-14T07:49:13.773Z,63.60
2018-02-14T07:52:37.830Z,63.60
2018-02-14T07:56:01.159Z,63.50
2018-02-14T07:59:24.433Z,63.50
2018-02-14T08:02:47.801Z,63.00
2018-02-14T08:06:11.086Z,62.20
2018-02-14T08:09:34.453Z,62.10
2018-02-14T08:12:57.699Z,62.30
2018-02-14T08:16:21.039Z,62.40
2018-02-14T08:19:44.293Z,61.20
2018-02-14T08:23:08.608Z,60.60
2018-02-14T08:26:32.668Z,61.00
2018-02-14T08:29:55.937Z,60.90
2018-02-14T08:33:19.216Z,59.00
2018-02-14T08:36:42.592Z,59.50
2018-02-14T08:40:05.866Z,59.20
2018-02-14T08:43:29.997Z,58.50
2018-02-14T08:46:53.346Z,58.50
2018-02-14T08:50:16.661Z,58.30
2018-02-14T08:53:39.930Z,57.90
2018-02-14T08:57:03.214Z,57.90
2018-02-14T09:00:26.485Z,57.60
2018-02-14T09:03:49.810Z,58.00
2018-02-14T09:07:13.180Z,58.20
2018-02-14T09:10:36.490Z,57.90
2018-02-14T09:13:59.770Z,57.80
2018-02-14T09:17:24.627Z,57.90
2018-02-14T09:20:49.738Z,55.60
2018-02-14T09:24:13.784Z,55.70
2018-02-14T09:27:37.855Z,54.40
2018-02-14T09:31:01.979Z,54.40
2018-02-14T09:34:25.505Z,54.60
2018-02-14T09:37:48.804Z,54.00
2018-02-14T09:41:12.935Z,54.90
2018-02-14T09:44:36.969Z,53.80
2018-02-14T09:48:01.021Z,53.30
2018-02-14T09:51:25.079Z,53.20
2018-02-14T09:54:48.332Z,54.30
2018-02-14T09:58:11.623Z,54.90
2018-02-14T10:01:35.755Z,55.30
2018-02-14T10:04:59.023Z,55.30
2018-02-14T10:08:22.396Z,55.30
2018-02-14T10:11:45.686Z,55.60
2018-02-14T10:15:09.122Z,56.10
2018-02-14T10:18:32.441Z,56.10
2018-02-14T10:21:55.811Z,56.20
2018-02-14T10:25:19.191Z,56.60
2018-02-14T10:28:42.633Z,56.00
2018-02-14T10:32:06.801Z,55.10
2018-02-14T10:35:30.131Z,55.00
2018-02-14T10:38:54.219Z,55.80
2018-02-14T10:42:17.712Z,55.70
2018-02-14T10:45:41.146Z,56.50
2018-02-14T10:49:04.394Z,56.00
2018-02-14T10:52:28.515Z,55.80
2018-02-14T10:55:52.565Z,54.60
2018-02-14T10:59:16.605Z,53.80
2018-02-14T11:02:46.338Z,53.30
2018-02-14T11:06:13.537Z,53.40
2018-02-14T11:09:36.992Z,53.00
2018-02-14T11:13:01.028Z,51.50
2018-02-14T11:16:25.080Z,50.70
2018-02-14T11:19:49.234Z,51.40
2018-02-14T11:23:12.566Z,51.30
2018-02-14T11:26:35.984Z,51.30
2018-02-14T11:29:59.285Z,50.90
2018-02-14T11:33:22.559Z,49.50
2018-02-14T11:36:45.832Z,50.00
2018-02-14T11:40:09.119Z,49.60
2018-02-14T11:43:33.249Z,47.60
2018-02-14T11:46:56.520Z,47.60
2018-02-14T11:50:20.582Z,48.50
2018-02-14T11:53:43.852Z,48.40
2018-02-14T11:57:07.192Z,48.70
2018-02-14T12:00:31.666Z,49.00
2018-02-14T12:03:54.974Z,49.00
2018-02-14T12:07:18.280Z,47.70
2018-02-14T12:10:42.389Z,46.10
2018-02-14T12:14:05.966Z,45.60
2018-02-14T12:17:29.312Z,44.60
2018-02-14T12:20:52.723Z,45.80
2018-02-14T12:24:16.870Z,45.90
2018-02-14T12:27:40.967Z,45.90
2018-02-14T12:31:05.036Z,45.70
2018-02-14T12:34:28.612Z,45.70
2018-02-14T12:37:52.036Z,45.60
2018-02-14T12:41:15.454Z,46.10
2018-02-14T12:44:39.698Z,45.90
2018-02-14T12:48:03.184Z,45.80
2018-02-14T12:51:26.627Z,45.00
2018-02-14T12:54:50.058Z,43.40
2018-02-14T12:58:15.655Z,42.50
2018-02-14T13:01:39.061Z,42.50
2018-02-14T13:05:02.401Z,43.00
2018-02-14T13:08:25.887Z,42.40
2018-02-14T13:11:49.365Z,42.00
2018-02-14T13:15:13.344Z,43.20
2018-02-14T13:18:37.495Z,44.70
2018-02-14T13:22:00.941Z,44.70
2018-02-14T13:25:24.373Z,43.30
2018-02-14T13:28:47.727Z,42.80
2018-02-14T13:32:11.888Z,40.40
2018-02-14T13:35:35.434Z,40.40
2018-02-14T13:38:58.839Z,40.40
2018-02-14T13:42:22.157Z,40.30
2018-02-14T13:45:45.476Z,40.90
2018-02-14T13:49:08.809Z,40.90
2018-02-14T13:52:32.940Z,41.00
2018-02-14T13:55:56.212Z,41.00
2018-02-14T13:59:20.266Z,40.90
2018-02-14T14:02:43.593Z,40.90
2018-02-14T14:06:06.948Z,41.00
2018-02-14T14:09:31.076Z,40.10
2018-02-14T14:12:54.343Z,40.10
2018-02-14T14:16:18.406Z,40.40
2018-02-14T14:19:41.742Z,40.30
2018-02-14T14:23:05.027Z,39.60
2018-02-14T14:26:29.089Z,39.70
2018-02-14T14:29:52.365Z,39.60
2018-02-14T14:33:16.807Z,40.90
2018-02-14T14:36:40.086Z,42.60
2018-02-14T14:40:04.125Z,44.00
2018-02-14T14:43:28.195Z,44.90
2018-02-14T14:46:51.486Z,44.80
2018-02-14T14:50:15.510Z,45.20
2018-02-14T14:53:39.652Z,45.50
2018-02-14T14:57:03.806Z,45.20
2018-02-14T15:00:27.920Z,46.10
2018-02-14T15:03:51.209Z,46.10
2018-02-14T15:07:15.887Z,45.10
2018-02-14T15:10:40.100Z,45.10
2018-02-14T15:14:03.497Z,46.30
2018-02-14T15:17:26.789Z,46.10
2018-02-14T15:20:50.915Z,46.80
2018-02-14T15:24:15.197Z,47.40
2018-02-14T15:27:38.513Z,47.00
2018-02-14T15:31:01.807Z,47.00
2018-02-14T15:34:25.207Z,47.90
2018-02-14T15:37:48.543Z,47.90
2018-02-14T15:41:12.830Z,48.30
2018-02-14T15:44:37.108Z,49.20
2018-02-14T15:48:01.323Z,49.40
2018-02-14T15:51:24.689Z,49.40
2018-02-14T15:54:48.789Z,50.50
2018-02-14T15:58:12.168Z,50.50
2018-02-14T16:01:35.468Z,51.20
2018-02-14T16:04:59.613Z,52.70
2018-02-14T16:08:23.680Z,53.40
2018-02-14T16:11:47.145Z,52.80
2018-02-14T16:15:10.439Z,53.00
2018-02-14T16:18:33.759Z,53.60
2018-02-14T16:21:57.033Z,53.70
2018-02-14T16:25:20.317Z,54.20
2018-02-14T16:28:43.573Z,54.60
2018-02-14T16:32:06.904Z,54.80
2018-02-14T16:35:30.326Z,54.80
2018-02-14T16:38:53.772Z,55.20
2018-02-14T16:42:17.888Z,56.80
2018-02-14T16:45:41.189Z,56.80
2018-02-14T16:49:04.469Z,57.00
2018-02-14T16:52:27.752Z,57.50
2018-02-14T16:55:51.800Z,58.20
2018-02-14T16:59:15.914Z,58.30
2018-02-14T17:02:39.321Z,58.30
2018-02-14T17:06:02.763Z,58.70
2018-02-14T17:09:27.396Z,58.80
2018-02-14T17:12:50.728Z,58.70
2018-02-14T17:16:14.001Z,58.80
2018-02-14T17:19:38.041Z,58.50
2018-02-14T17:23:02.189Z,58.50
2018-02-14T17:26:26.251Z,58.70
2018-02-14T17:29:49.580Z,58.70
2018-02-14T17:33:14.552Z,59.80
2018-02-14T17:36:38.156Z,59.80
2018-02-14T17:40:03.545Z,60.10
2018-02-14T17:43:29.376Z,60.20
2018-02-14T17:46:53.554Z,60.30
2018-02-14T17:50:17.612Z,60.90
2018-02-14T17:53:41.020Z,60.80
2018-02-14T17:57:05.186Z,60.50
2018-02-14T18:00:29.397Z,60.40
2018-02-14T18:03:53.497Z,60.90
2018-02-14T18:07:19.244Z,60.90
2018-02-14T18:10:42.596Z,60.60
2018-02-14T18:14:05.890Z,60.00
2018-02-14T18:17:29.973Z,60.50
2018-02-14T18:20:54.055Z,60.80
2018-02-14T18:24:17.352Z,60.70
2018-02-14T18:27:40.706Z,60.30
2018-02-14T18:31:04.257Z,64.40
2018-02-14T18:34:27.659Z,61.20
2018-02-14T18:37:51.728Z,60.40
2018-02-14T18:41:15.825Z,61.20
2018-02-14T18:44:40.036Z,60.80
2018-02-14T18:48:03.419Z,60.80
2018-02-14T18:51:27.812Z,60.10
2018-02-14T18:54:52.339Z,60.20
2018-02-14T18:58:17.247Z,60.60
2018-02-14T19:01:41.725Z,60.80
2018-02-14T19:05:06.538Z,60.10
2018-02-14T19:08:31.488Z,60.00
2018-02-14T19:11:55.581Z,60.70
2018-02-14T19:15:19.709Z,60.50
2018-02-14T19:18:43.895Z,61.10
2018-02-14T19:22:08.961Z,60.50
2018-02-14T19:25:32.994Z,60.60
2018-02-14T19:28:57.126Z,59.40
2018-02-14T19:32:20.395Z,59.40
2018-02-14T19:35:43.746Z,59.70
2018-02-14T19:39:07.249Z,60.40
2018-02-14T19:42:31.296Z,60.60
2018-02-14T19:45:55.340Z,61.30
2018-02-14T19:49:18.631Z,61.10
2018-02-14T19:52:41.931Z,61.30
2018-02-14T19:56:05.316Z,60.90
2018-02-14T19:59:28.593Z,61.10
2018-02-14T20:02:52.684Z,61.70
2018-02-14T20:06:16.939Z,61.70
2018-02-14T20:09:40.338Z,61.60
2018-02-14T20:13:05.741Z,62.70
2018-02-14T20:16:29.056Z,62.00
2018-02-14T20:19:52.411Z,62.60
2018-02-14T20:23:16.508Z,63.30
2018-02-14T20:26:39.897Z,63.30
2018-02-14T20:30:03.228Z,63.70
2018-02-14T20:33:28.521Z,63.80
2018-02-14T20:36:52.594Z,63.80
2018-02-14T20:40:16.678Z,63.80
2018-02-14T20:43:41.367Z,64.30
2018-02-14T20:47:05.490Z,64.50
2018-02-14T20:50:29.621Z,64.40
2018-02-14T20:53:52.992Z,65.10
2018-02-14T20:57:16.315Z,65.10
2018-02-14T21:00:40.652Z,65.30
2018-02-14T21:04:03.969Z,65.70
2018-02-14T21:07:27.293Z,65.90
2018-02-14T21:10:50.583Z,66.00
2018-02-14T21:14:14.691Z,71.60
2018-02-14T21:17:37.980Z,71.50
2018-02-14T21:21:01.419Z,71.40
2018-02-14T21:24:26.843Z,65.60
2018-02-14T21:27:50.316Z,65.60
2018-02-14T21:31:13.813Z,65.50
2018-02-14T21:34:38.100Z,66.10
2018-02-14T21:38:01.416Z,65.10
2018-02-14T21:41:24.873Z,65.20
2018-02-14T21:44:48.248Z,65.30
2018-02-14T21:48:11.663Z,65.40
2018-02-14T21:51:35.823Z,65.20
2018-02-14T21:54:59.302Z,65.20
2018-02-14T21:58:23.398Z,65.00
2018-02-14T22:01:47.501Z,65.80
2018-02-14T22:05:10.908Z,65.70
2018-02-14T22:08:34.970Z,66.10
2018-02-14T22:11:58.344Z,66.10
2018-02-14T22:15:21.657Z,65.90
2018-02-14T22:18:45.075Z,65.10
2018-02-14T22:22:08.367Z,65.40
2018-02-14T22:25:31.675Z,65.20
2018-02-14T22:28:55.103Z,65.80
2018-02-14T22:32:18.405Z,65.80
2018-02-14T22:35:41.676Z,65.70
2018-02-14T22:39:04.952Z,65.30
2018-02-14T22:42:28.231Z,64.60
2018-02-14T22:45:52.383Z,63.90
2018-02-14T22:49:15.698Z,63.60
2018-02-14T22:52:39.878Z,64.50
2018-02-14T22:56:04.012Z,65.50
2018-02-14T22:59:28.081Z,66.60
2018-02-14T23:02:51.360Z,65.80
2018-02-14T23:06:14.740Z,66.10
2018-02-14T23:09:38.057Z,66.30
2018-02-14T23:13:02.108Z,66.30
2018-02-14T23:16:26.228Z,66.30
2018-02-14T23:19:49.600Z,66.30
2018-02-14T23:23:12.896Z,66.20
2018-02-14T23:26:36.220Z,66.60
2018-02-14T23:29:59.527Z,65.90
2018-02-14T23:33:23.762Z,66.30
2018-02-14T23:36:47.806Z,65.70
2018-02-14T23:40:11.110Z,65.50
2018-02-14T23:43:35.228Z,65.60
2018-02-14T23:46:58.505Z,65.60
2018-02-14T23:50:22.715Z,65.90
2018-02-14T23:53:46.841Z,66.60
2018-02-14T23:57:11.041Z,65.80
